<?xml version="1.0" encoding="UTF-8" standalone="no" ?><gpx xmlns="http://www.topografix.com/GPX/1/1" xmlns:gpxx="http://www.garmin.com/xmlschemas/GpxExtensions/v3" xmlns:wptx1="http://www.garmin.com/xmlschemas/WaypointExtension/v1" xmlns:gpxtpx="http://www.garmin.com/xmlschemas/TrackPointExtension/v1" creator="GuideVTT.com" version="1.1" xmlns:xsi="http://www.w3.org/2001/XMLSchema-instance" xsi:schemaLocation="http://www.topografix.com/GPX/1/1 http://www.topografix.com/GPX/1/1/gpx.xsd http://www.garmin.com/xmlschemas/GpxExtensions/v3 http://www8.garmin.com/xmlschemas/GpxExtensionsv3.xsd http://www.garmin.com/xmlschemas/WaypointExtension/v1 http://www8.garmin.com/xmlschemas/WaypointExtensionv1.xsd http://www.garmin.com/xmlschemas/TrackPointExtension/v1 http://www.garmin.com/xmlschemas/TrackPointExtensionv1.xsd">
<metadata><link href="http://www.garmin.com"><text>Garmin International</text></link><time>2013-06-22T15:13:50Z</time></metadata>
<trk><name>2022-05-23_1218__20220523_1218.gpx</name><extensions><gpxx:TrackExtension><gpxx:DisplayColor>Cyan</gpxx:DisplayColor></gpxx:TrackExtension></extensions><trkseg>
<trkpt lat="44.7936213" lon="6.7269403"><ele></ele><time>2025-2-28T3:33:38Z</time></trkpt>
<trkpt lat="44.7937338" lon="6.7267408"><ele></ele><time>2025-2-28T3:33:41Z</time></trkpt>
<trkpt lat="44.7938589" lon="6.7265253"><ele></ele><time>2025-2-28T3:33:44Z</time></trkpt>
<trkpt lat="44.7940323" lon="6.7263900"><ele></ele><time>2025-2-28T3:33:47Z</time></trkpt>
<trkpt lat="44.7941103" lon="6.7261327"><ele></ele><time>2025-2-28T3:33:50Z</time></trkpt>
<trkpt lat="44.7942220" lon="6.7258956"><ele></ele><time>2025-2-28T3:33:53Z</time></trkpt>
<trkpt lat="44.7943859" lon="6.7257274"><ele></ele><time>2025-2-28T3:33:56Z</time></trkpt>
<trkpt lat="44.7945064" lon="6.7254885"><ele></ele><time>2025-2-28T3:33:59Z</time></trkpt>
<trkpt lat="44.7946128" lon="6.7252405"><ele></ele><time>2025-2-28T3:34:2Z</time></trkpt>
<trkpt lat="44.7947326" lon="6.7249680"><ele></ele><time>2025-2-28T3:34:5Z</time></trkpt>
<trkpt lat="44.7948309" lon="6.7247472"><ele></ele><time>2025-2-28T3:34:8Z</time></trkpt>
<trkpt lat="44.7949486" lon="6.7245016"><ele></ele><time>2025-2-28T3:34:11Z</time></trkpt>
<trkpt lat="44.7950654" lon="6.7242656"><ele></ele><time>2025-2-28T3:34:14Z</time></trkpt>
<trkpt lat="44.7951889" lon="6.7240261"><ele></ele><time>2025-2-28T3:34:17Z</time></trkpt>
<trkpt lat="44.7953102" lon="6.7238060"><ele></ele><time>2025-2-28T3:34:20Z</time></trkpt>
<trkpt lat="44.7954266" lon="6.7235848"><ele></ele><time>2025-2-28T3:34:23Z</time></trkpt>
<trkpt lat="44.7956057" lon="6.7233819"><ele></ele><time>2025-2-28T3:34:26Z</time></trkpt>
<trkpt lat="44.7958040" lon="6.7232091"><ele></ele><time>2025-2-28T3:34:29Z</time></trkpt>
<trkpt lat="44.7959650" lon="6.7230862"><ele></ele><time>2025-2-28T3:34:32Z</time></trkpt>
<trkpt lat="44.7961308" lon="6.7229667"><ele></ele><time>2025-2-28T3:34:35Z</time></trkpt>
<trkpt lat="44.7962877" lon="6.7228244"><ele></ele><time>2025-2-28T3:34:38Z</time></trkpt>
<trkpt lat="44.7964561" lon="6.7226947"><ele></ele><time>2025-2-28T3:34:41Z</time></trkpt>
<trkpt lat="44.7966427" lon="6.7225633"><ele></ele><time>2025-2-28T3:34:44Z</time></trkpt>
<trkpt lat="44.7967955" lon="6.7224054"><ele></ele><time>2025-2-28T3:34:47Z</time></trkpt>
<trkpt lat="44.7969110" lon="6.7221941"><ele></ele><time>2025-2-28T3:34:50Z</time></trkpt>
<trkpt lat="44.7970295" lon="6.7219451"><ele></ele><time>2025-2-28T3:34:53Z</time></trkpt>
<trkpt lat="44.7971215" lon="6.7217114"><ele></ele><time>2025-2-28T3:34:56Z</time></trkpt>
<trkpt lat="44.7972674" lon="6.7215237"><ele></ele><time>2025-2-28T3:34:59Z</time></trkpt>
<trkpt lat="44.7974407" lon="6.7213380"><ele></ele><time>2025-2-28T3:35:2Z</time></trkpt>
<trkpt lat="44.7976108" lon="6.7211889"><ele></ele><time>2025-2-28T3:35:5Z</time></trkpt>
<trkpt lat="44.7977656" lon="6.7210501"><ele></ele><time>2025-2-28T3:35:8Z</time></trkpt>
<trkpt lat="44.7978977" lon="6.7208399"><ele></ele><time>2025-2-28T3:35:11Z</time></trkpt>
<trkpt lat="44.7980154" lon="6.7206182"><ele></ele><time>2025-2-28T3:35:14Z</time></trkpt>
<trkpt lat="44.7981446" lon="6.7204244"><ele></ele><time>2025-2-28T3:35:17Z</time></trkpt>
<trkpt lat="44.7983128" lon="6.7202434"><ele></ele><time>2025-2-28T3:35:20Z</time></trkpt>
<trkpt lat="44.7983854" lon="6.7199782"><ele></ele><time>2025-2-28T3:35:23Z</time></trkpt>
<trkpt lat="44.7984302" lon="6.7197315"><ele></ele><time>2025-2-28T3:35:26Z</time></trkpt>
<trkpt lat="44.7984969" lon="6.7194930"><ele></ele><time>2025-2-28T3:35:29Z</time></trkpt>
<trkpt lat="44.7985086" lon="6.7192245"><ele></ele><time>2025-2-28T3:35:32Z</time></trkpt>
<trkpt lat="44.7985433" lon="6.7189594"><ele></ele><time>2025-2-28T3:35:35Z</time></trkpt>
<trkpt lat="44.7985956" lon="6.7187083"><ele></ele><time>2025-2-28T3:35:38Z</time></trkpt>
<trkpt lat="44.7987249" lon="6.7185074"><ele></ele><time>2025-2-28T3:35:41Z</time></trkpt>
<trkpt lat="44.7988295" lon="6.7182645"><ele></ele><time>2025-2-28T3:35:44Z</time></trkpt>
<trkpt lat="44.7988964" lon="6.7180165"><ele></ele><time>2025-2-28T3:35:47Z</time></trkpt>
<trkpt lat="44.7990173" lon="6.7178004"><ele></ele><time>2025-2-28T3:35:50Z</time></trkpt>
<trkpt lat="44.7991677" lon="6.7175667"><ele></ele><time>2025-2-28T3:35:53Z</time></trkpt>
<trkpt lat="44.7993229" lon="6.7173250"><ele></ele><time>2025-2-28T3:35:56Z</time></trkpt>
<trkpt lat="44.7994445" lon="6.7171025"><ele></ele><time>2025-2-28T3:35:59Z</time></trkpt>
<trkpt lat="44.7994827" lon="6.7168139"><ele></ele><time>2025-2-28T3:36:2Z</time></trkpt>
<trkpt lat="44.7994918" lon="6.7165413"><ele></ele><time>2025-2-28T3:36:5Z</time></trkpt>
<trkpt lat="44.7995116" lon="6.7162745"><ele></ele><time>2025-2-28T3:36:8Z</time></trkpt>
<trkpt lat="44.7995572" lon="6.7159930"><ele></ele><time>2025-2-28T3:36:11Z</time></trkpt>
<trkpt lat="44.7996695" lon="6.7157537"><ele></ele><time>2025-2-28T3:36:14Z</time></trkpt>
<trkpt lat="44.7997375" lon="6.7155111"><ele></ele><time>2025-2-28T3:36:17Z</time></trkpt>
<trkpt lat="44.7997927" lon="6.7152342"><ele></ele><time>2025-2-28T3:36:20Z</time></trkpt>
<trkpt lat="44.7998668" lon="6.7150006"><ele></ele><time>2025-2-28T3:36:23Z</time></trkpt>
<trkpt lat="44.7999450" lon="6.7147370"><ele></ele><time>2025-2-28T3:36:26Z</time></trkpt>
<trkpt lat="44.8000013" lon="6.7144671"><ele></ele><time>2025-2-28T3:36:29Z</time></trkpt>
<trkpt lat="44.8000725" lon="6.7141975"><ele></ele><time>2025-2-28T3:36:32Z</time></trkpt>
<trkpt lat="44.8001598" lon="6.7139320"><ele></ele><time>2025-2-28T3:36:35Z</time></trkpt>
<trkpt lat="44.8002155" lon="6.7136809"><ele></ele><time>2025-2-28T3:36:38Z</time></trkpt>
<trkpt lat="44.8002329" lon="6.7134232"><ele></ele><time>2025-2-28T3:36:41Z</time></trkpt>
<trkpt lat="44.8001896" lon="6.7131573"><ele></ele><time>2025-2-28T3:36:44Z</time></trkpt>
<trkpt lat="44.8002041" lon="6.7128988"><ele></ele><time>2025-2-28T3:36:47Z</time></trkpt>
<trkpt lat="44.8003353" lon="6.7126913"><ele></ele><time>2025-2-28T3:36:50Z</time></trkpt>
<trkpt lat="44.8004343" lon="6.7124762"><ele></ele><time>2025-2-28T3:36:53Z</time></trkpt>
<trkpt lat="44.8005038" lon="6.7122341"><ele></ele><time>2025-2-28T3:36:56Z</time></trkpt>
<trkpt lat="44.8006245" lon="6.7120313"><ele></ele><time>2025-2-28T3:36:59Z</time></trkpt>
<trkpt lat="44.8007494" lon="6.7118281"><ele></ele><time>2025-2-28T3:37:2Z</time></trkpt>
<trkpt lat="44.8008971" lon="6.7116830"><ele></ele><time>2025-2-28T3:37:5Z</time></trkpt>
<trkpt lat="44.8010704" lon="6.7115964"><ele></ele><time>2025-2-28T3:37:8Z</time></trkpt>
<trkpt lat="44.8012548" lon="6.7115417"><ele></ele><time>2025-2-28T3:37:11Z</time></trkpt>
<trkpt lat="44.8014062" lon="6.7113972"><ele></ele><time>2025-2-28T3:37:14Z</time></trkpt>
<trkpt lat="44.8015915" lon="6.7112989"><ele></ele><time>2025-2-28T3:37:17Z</time></trkpt>
<trkpt lat="44.8017377" lon="6.7111430"><ele></ele><time>2025-2-28T3:37:20Z</time></trkpt>
<trkpt lat="44.8018793" lon="6.7109793"><ele></ele><time>2025-2-28T3:37:23Z</time></trkpt>
<trkpt lat="44.8020313" lon="6.7107845"><ele></ele><time>2025-2-28T3:37:26Z</time></trkpt>
<trkpt lat="44.8021664" lon="6.7105720"><ele></ele><time>2025-2-28T3:37:29Z</time></trkpt>
<trkpt lat="44.8023253" lon="6.7104166"><ele></ele><time>2025-2-28T3:37:32Z</time></trkpt>
<trkpt lat="44.8024073" lon="6.7101560"><ele></ele><time>2025-2-28T3:37:35Z</time></trkpt>
<trkpt lat="44.8024985" lon="6.7099301"><ele></ele><time>2025-2-28T3:37:38Z</time></trkpt>
<trkpt lat="44.8026239" lon="6.7097457"><ele></ele><time>2025-2-28T3:37:41Z</time></trkpt>
<trkpt lat="44.8027428" lon="6.7095456"><ele></ele><time>2025-2-28T3:37:44Z</time></trkpt>
<trkpt lat="44.8029020" lon="6.7094063"><ele></ele><time>2025-2-28T3:37:47Z</time></trkpt>
<trkpt lat="44.8030350" lon="6.7091971"><ele></ele><time>2025-2-28T3:37:50Z</time></trkpt>
<trkpt lat="44.8032269" lon="6.7091150"><ele></ele><time>2025-2-28T3:37:53Z</time></trkpt>
<trkpt lat="44.8033944" lon="6.7090141"><ele></ele><time>2025-2-28T3:37:56Z</time></trkpt>
<trkpt lat="44.8035701" lon="6.7089141"><ele></ele><time>2025-2-28T3:37:59Z</time></trkpt>
<trkpt lat="44.8037485" lon="6.7088014"><ele></ele><time>2025-2-28T3:38:2Z</time></trkpt>
<trkpt lat="44.8039429" lon="6.7087418"><ele></ele><time>2025-2-28T3:38:5Z</time></trkpt>
<trkpt lat="44.8041272" lon="6.7087528"><ele></ele><time>2025-2-28T3:38:8Z</time></trkpt>
<trkpt lat="44.8043241" lon="6.7087695"><ele></ele><time>2025-2-28T3:38:11Z</time></trkpt>
<trkpt lat="44.8045128" lon="6.7087452"><ele></ele><time>2025-2-28T3:38:14Z</time></trkpt>
<trkpt lat="44.8046629" lon="6.7085717"><ele></ele><time>2025-2-28T3:38:17Z</time></trkpt>
<trkpt lat="44.8047303" lon="6.7082980"><ele></ele><time>2025-2-28T3:38:20Z</time></trkpt>
<trkpt lat="44.8048074" lon="6.7080603"><ele></ele><time>2025-2-28T3:38:23Z</time></trkpt>
<trkpt lat="44.8049044" lon="6.7078224"><ele></ele><time>2025-2-28T3:38:26Z</time></trkpt>
<trkpt lat="44.8049789" lon="6.7075791"><ele></ele><time>2025-2-28T3:38:29Z</time></trkpt>
<trkpt lat="44.8050826" lon="6.7073610"><ele></ele><time>2025-2-28T3:38:32Z</time></trkpt>
<trkpt lat="44.8051958" lon="6.7071440"><ele></ele><time>2025-2-28T3:38:35Z</time></trkpt>
<trkpt lat="44.8052869" lon="6.7069169"><ele></ele><time>2025-2-28T3:38:38Z</time></trkpt>
<trkpt lat="44.8054491" lon="6.7067919"><ele></ele><time>2025-2-28T3:38:41Z</time></trkpt>
<trkpt lat="44.8054944" lon="6.7070512"><ele></ele><time>2025-2-28T3:38:44Z</time></trkpt>
<trkpt lat="44.8056086" lon="6.7072733"><ele></ele><time>2025-2-28T3:38:47Z</time></trkpt>
<trkpt lat="44.8057299" lon="6.7070754"><ele></ele><time>2025-2-28T3:38:50Z</time></trkpt>
<trkpt lat="44.8058335" lon="6.7068633"><ele></ele><time>2025-2-28T3:38:53Z</time></trkpt>
<trkpt lat="44.8059988" lon="6.7067338"><ele></ele><time>2025-2-28T3:38:56Z</time></trkpt>
<trkpt lat="44.8059651" lon="6.7070051"><ele></ele><time>2025-2-28T3:38:59Z</time></trkpt>
<trkpt lat="44.8058847" lon="6.7072344"><ele></ele><time>2025-2-28T3:39:2Z</time></trkpt>
<trkpt lat="44.8058262" lon="6.7074805"><ele></ele><time>2025-2-28T3:39:5Z</time></trkpt>
<trkpt lat="44.8059946" lon="6.7075718"><ele></ele><time>2025-2-28T3:39:8Z</time></trkpt>
<trkpt lat="44.8061785" lon="6.7074857"><ele></ele><time>2025-2-28T3:39:11Z</time></trkpt>
<trkpt lat="44.8063311" lon="6.7073129"><ele></ele><time>2025-2-28T3:39:14Z</time></trkpt>
<trkpt lat="44.8064777" lon="6.7071508"><ele></ele><time>2025-2-28T3:39:17Z</time></trkpt>
<trkpt lat="44.8066124" lon="6.7069751"><ele></ele><time>2025-2-28T3:39:20Z</time></trkpt>
<trkpt lat="44.8066055" lon="6.7067021"><ele></ele><time>2025-2-28T3:39:23Z</time></trkpt>
<trkpt lat="44.8065231" lon="6.7064636"><ele></ele><time>2025-2-28T3:39:26Z</time></trkpt>
<trkpt lat="44.8063970" lon="6.7062691"><ele></ele><time>2025-2-28T3:39:29Z</time></trkpt>
<trkpt lat="44.8063270" lon="6.7060244"><ele></ele><time>2025-2-28T3:39:32Z</time></trkpt>
<trkpt lat="44.8062952" lon="6.7057447"><ele></ele><time>2025-2-28T3:39:35Z</time></trkpt>
<trkpt lat="44.8062590" lon="6.7054959"><ele></ele><time>2025-2-28T3:39:38Z</time></trkpt>
<trkpt lat="44.8062759" lon="6.7052273"><ele></ele><time>2025-2-28T3:39:41Z</time></trkpt>
<trkpt lat="44.8063389" lon="6.7049670"><ele></ele><time>2025-2-28T3:39:44Z</time></trkpt>
<trkpt lat="44.8064061" lon="6.7047044"><ele></ele><time>2025-2-28T3:39:47Z</time></trkpt>
<trkpt lat="44.8064711" lon="6.7044633"><ele></ele><time>2025-2-28T3:39:50Z</time></trkpt>
<trkpt lat="44.8065103" lon="6.7042065"><ele></ele><time>2025-2-28T3:39:53Z</time></trkpt>
<trkpt lat="44.8065634" lon="6.7039530"><ele></ele><time>2025-2-28T3:39:56Z</time></trkpt>
<trkpt lat="44.8066191" lon="6.7036906"><ele></ele><time>2025-2-28T3:39:59Z</time></trkpt>
<trkpt lat="44.8066324" lon="6.7034291"><ele></ele><time>2025-2-28T3:40:2Z</time></trkpt>
<trkpt lat="44.8065958" lon="6.7031694"><ele></ele><time>2025-2-28T3:40:5Z</time></trkpt>
<trkpt lat="44.8064309" lon="6.7030610"><ele></ele><time>2025-2-28T3:40:8Z</time></trkpt>
<trkpt lat="44.8062923" lon="6.7028495"><ele></ele><time>2025-2-28T3:40:11Z</time></trkpt>
<trkpt lat="44.8062467" lon="6.7025879"><ele></ele><time>2025-2-28T3:40:14Z</time></trkpt>
<trkpt lat="44.8061251" lon="6.7023770"><ele></ele><time>2025-2-28T3:40:17Z</time></trkpt>
<trkpt lat="44.8060149" lon="6.7021697"><ele></ele><time>2025-2-28T3:40:20Z</time></trkpt>
<trkpt lat="44.8059067" lon="6.7019434"><ele></ele><time>2025-2-28T3:40:23Z</time></trkpt>
<trkpt lat="44.8057185" lon="6.7018900"><ele></ele><time>2025-2-28T3:40:26Z</time></trkpt>
<trkpt lat="44.8058036" lon="6.7021228"><ele></ele><time>2025-2-28T3:40:29Z</time></trkpt>
<trkpt lat="44.8059054" lon="6.7019024"><ele></ele><time>2025-2-28T3:40:32Z</time></trkpt>
<trkpt lat="44.8059052" lon="6.7016181"><ele></ele><time>2025-2-28T3:40:35Z</time></trkpt>
<trkpt lat="44.8059183" lon="6.7013388"><ele></ele><time>2025-2-28T3:40:38Z</time></trkpt>
<trkpt lat="44.8058884" lon="6.7010814"><ele></ele><time>2025-2-28T3:40:41Z</time></trkpt>
<trkpt lat="44.8058677" lon="6.7008174"><ele></ele><time>2025-2-28T3:40:44Z</time></trkpt>
<trkpt lat="44.8058386" lon="6.7005421"><ele></ele><time>2025-2-28T3:40:47Z</time></trkpt>
<trkpt lat="44.8058199" lon="6.7002701"><ele></ele><time>2025-2-28T3:40:50Z</time></trkpt>
<trkpt lat="44.8057501" lon="6.7000024"><ele></ele><time>2025-2-28T3:40:53Z</time></trkpt>
<trkpt lat="44.8059268" lon="6.7001264"><ele></ele><time>2025-2-28T3:40:56Z</time></trkpt>
<trkpt lat="44.8059906" lon="6.7003987"><ele></ele><time>2025-2-28T3:40:59Z</time></trkpt>
<trkpt lat="44.8060607" lon="6.7006451"><ele></ele><time>2025-2-28T3:41:2Z</time></trkpt>
<trkpt lat="44.8061075" lon="6.7008990"><ele></ele><time>2025-2-28T3:41:5Z</time></trkpt>
<trkpt lat="44.8061295" lon="6.7006273"><ele></ele><time>2025-2-28T3:41:8Z</time></trkpt>
<trkpt lat="44.8060989" lon="6.7003686"><ele></ele><time>2025-2-28T3:41:11Z</time></trkpt>
<trkpt lat="44.8060829" lon="6.7000973"><ele></ele><time>2025-2-28T3:41:14Z</time></trkpt>
<trkpt lat="44.8060617" lon="6.6998351"><ele></ele><time>2025-2-28T3:41:17Z</time></trkpt>
<trkpt lat="44.8062170" lon="6.7000635"><ele></ele><time>2025-2-28T3:41:20Z</time></trkpt>
<trkpt lat="44.8062874" lon="6.7003063"><ele></ele><time>2025-2-28T3:41:23Z</time></trkpt>
<trkpt lat="44.8062877" lon="6.7000353"><ele></ele><time>2025-2-28T3:41:26Z</time></trkpt>
<trkpt lat="44.8062569" lon="6.6997756"><ele></ele><time>2025-2-28T3:41:29Z</time></trkpt>
<trkpt lat="44.8062041" lon="6.6995332"><ele></ele><time>2025-2-28T3:41:32Z</time></trkpt>
<trkpt lat="44.8061064" lon="6.6992774"><ele></ele><time>2025-2-28T3:41:35Z</time></trkpt>
<trkpt lat="44.8060161" lon="6.6990366"><ele></ele><time>2025-2-28T3:41:38Z</time></trkpt>
<trkpt lat="44.8058952" lon="6.6988324"><ele></ele><time>2025-2-28T3:41:41Z</time></trkpt>
<trkpt lat="44.8057299" lon="6.6986905"><ele></ele><time>2025-2-28T3:41:44Z</time></trkpt>
<trkpt lat="44.8055801" lon="6.6985487"><ele></ele><time>2025-2-28T3:41:47Z</time></trkpt>
<trkpt lat="44.8054324" lon="6.6983638"><ele></ele><time>2025-2-28T3:41:50Z</time></trkpt>
<trkpt lat="44.8052588" lon="6.6982299"><ele></ele><time>2025-2-28T3:41:53Z</time></trkpt>
<trkpt lat="44.8050973" lon="6.6980669"><ele></ele><time>2025-2-28T3:41:56Z</time></trkpt>
<trkpt lat="44.8049447" lon="6.6979221"><ele></ele><time>2025-2-28T3:41:59Z</time></trkpt>
<trkpt lat="44.8047720" lon="6.6977975"><ele></ele><time>2025-2-28T3:42:2Z</time></trkpt>
<trkpt lat="44.8046091" lon="6.6976614"><ele></ele><time>2025-2-28T3:42:5Z</time></trkpt>
<trkpt lat="44.8044131" lon="6.6976680"><ele></ele><time>2025-2-28T3:42:8Z</time></trkpt>
<trkpt lat="44.8042364" lon="6.6976046"><ele></ele><time>2025-2-28T3:42:11Z</time></trkpt>
<trkpt lat="44.8040834" lon="6.6974350"><ele></ele><time>2025-2-28T3:42:14Z</time></trkpt>
<trkpt lat="44.8040200" lon="6.6971835"><ele></ele><time>2025-2-28T3:42:17Z</time></trkpt>
<trkpt lat="44.8040208" lon="6.6969222"><ele></ele><time>2025-2-28T3:42:20Z</time></trkpt>
<trkpt lat="44.8039782" lon="6.6966636"><ele></ele><time>2025-2-28T3:42:23Z</time></trkpt>
<trkpt lat="44.8039703" lon="6.6963840"><ele></ele><time>2025-2-28T3:42:26Z</time></trkpt>
<trkpt lat="44.8039654" lon="6.6960747"><ele></ele><time>2025-2-28T3:42:29Z</time></trkpt>
<trkpt lat="44.8039304" lon="6.6957828"><ele></ele><time>2025-2-28T3:42:32Z</time></trkpt>
<trkpt lat="44.8038728" lon="6.6955345"><ele></ele><time>2025-2-28T3:42:35Z</time></trkpt>
<trkpt lat="44.8036881" lon="6.6953898"><ele></ele><time>2025-2-28T3:42:38Z</time></trkpt>
<trkpt lat="44.8034734" lon="6.6953716"><ele></ele><time>2025-2-28T3:42:41Z</time></trkpt>
<trkpt lat="44.8032967" lon="6.6952481"><ele></ele><time>2025-2-28T3:42:44Z</time></trkpt>
<trkpt lat="44.8031044" lon="6.6951507"><ele></ele><time>2025-2-28T3:42:47Z</time></trkpt>
<trkpt lat="44.8029015" lon="6.6951079"><ele></ele><time>2025-2-28T3:42:50Z</time></trkpt>
<trkpt lat="44.8026916" lon="6.6950278"><ele></ele><time>2025-2-28T3:42:53Z</time></trkpt>
<trkpt lat="44.8025144" lon="6.6948766"><ele></ele><time>2025-2-28T3:42:56Z</time></trkpt>
<trkpt lat="44.8023362" lon="6.6948245"><ele></ele><time>2025-2-28T3:42:59Z</time></trkpt>
<trkpt lat="44.8021383" lon="6.6948681"><ele></ele><time>2025-2-28T3:43:2Z</time></trkpt>
<trkpt lat="44.8019522" lon="6.6949126"><ele></ele><time>2025-2-28T3:43:5Z</time></trkpt>
<trkpt lat="44.8017352" lon="6.6949159"><ele></ele><time>2025-2-28T3:43:8Z</time></trkpt>
<trkpt lat="44.8015332" lon="6.6949723"><ele></ele><time>2025-2-28T3:43:11Z</time></trkpt>
<trkpt lat="44.8013580" lon="6.6950770"><ele></ele><time>2025-2-28T3:43:14Z</time></trkpt>
<trkpt lat="44.8011629" lon="6.6951017"><ele></ele><time>2025-2-28T3:43:17Z</time></trkpt>
<trkpt lat="44.8010186" lon="6.6949310"><ele></ele><time>2025-2-28T3:43:20Z</time></trkpt>
<trkpt lat="44.8008995" lon="6.6947240"><ele></ele><time>2025-2-28T3:43:23Z</time></trkpt>
<trkpt lat="44.8007777" lon="6.6945120"><ele></ele><time>2025-2-28T3:43:26Z</time></trkpt>
<trkpt lat="44.8005851" lon="6.6944594"><ele></ele><time>2025-2-28T3:43:29Z</time></trkpt>
<trkpt lat="44.8004078" lon="6.6945372"><ele></ele><time>2025-2-28T3:43:32Z</time></trkpt>
<trkpt lat="44.8002194" lon="6.6944707"><ele></ele><time>2025-2-28T3:43:35Z</time></trkpt>
<trkpt lat="44.8001229" lon="6.6942511"><ele></ele><time>2025-2-28T3:43:38Z</time></trkpt>
<trkpt lat="44.8003114" lon="6.6943202"><ele></ele><time>2025-2-28T3:43:41Z</time></trkpt>
<trkpt lat="44.8002743" lon="6.6940720"><ele></ele><time>2025-2-28T3:43:44Z</time></trkpt>
<trkpt lat="44.8001654" lon="6.6938628"><ele></ele><time>2025-2-28T3:43:47Z</time></trkpt>
<trkpt lat="44.8000745" lon="6.6936244"><ele></ele><time>2025-2-28T3:43:50Z</time></trkpt>
<trkpt lat="44.7999596" lon="6.6934232"><ele></ele><time>2025-2-28T3:43:53Z</time></trkpt>
<trkpt lat="44.7998454" lon="6.6932154"><ele></ele><time>2025-2-28T3:43:56Z</time></trkpt>
<trkpt lat="44.7997173" lon="6.6930212"><ele></ele><time>2025-2-28T3:43:59Z</time></trkpt>
<trkpt lat="44.7995380" lon="6.6929595"><ele></ele><time>2025-2-28T3:44:2Z</time></trkpt>
<trkpt lat="44.7996248" lon="6.6927148"><ele></ele><time>2025-2-28T3:44:5Z</time></trkpt>
<trkpt lat="44.7996317" lon="6.6924414"><ele></ele><time>2025-2-28T3:44:8Z</time></trkpt>
<trkpt lat="44.7995463" lon="6.6922091"><ele></ele><time>2025-2-28T3:44:11Z</time></trkpt>
<trkpt lat="44.7994536" lon="6.6919783"><ele></ele><time>2025-2-28T3:44:14Z</time></trkpt>
<trkpt lat="44.7993363" lon="6.6917808"><ele></ele><time>2025-2-28T3:44:17Z</time></trkpt>
<trkpt lat="44.7992057" lon="6.6915901"><ele></ele><time>2025-2-28T3:44:20Z</time></trkpt>
<trkpt lat="44.7990508" lon="6.6914493"><ele></ele><time>2025-2-28T3:44:23Z</time></trkpt>
<trkpt lat="44.7988789" lon="6.6912939"><ele></ele><time>2025-2-28T3:44:26Z</time></trkpt>
<trkpt lat="44.7987360" lon="6.6911309"><ele></ele><time>2025-2-28T3:44:29Z</time></trkpt>
<trkpt lat="44.7985776" lon="6.6909949"><ele></ele><time>2025-2-28T3:44:32Z</time></trkpt>
<trkpt lat="44.7984402" lon="6.6908141"><ele></ele><time>2025-2-28T3:44:35Z</time></trkpt>
<trkpt lat="44.7983444" lon="6.6905932"><ele></ele><time>2025-2-28T3:44:38Z</time></trkpt>
<trkpt lat="44.7981536" lon="6.6904785"><ele></ele><time>2025-2-28T3:44:41Z</time></trkpt>
<trkpt lat="44.7979981" lon="6.6903293"><ele></ele><time>2025-2-28T3:44:44Z</time></trkpt>
<trkpt lat="44.7978468" lon="6.6901199"><ele></ele><time>2025-2-28T3:44:47Z</time></trkpt>
<trkpt lat="44.7976898" lon="6.6899866"><ele></ele><time>2025-2-28T3:44:50Z</time></trkpt>
<trkpt lat="44.7975135" lon="6.6899071"><ele></ele><time>2025-2-28T3:44:53Z</time></trkpt>
<trkpt lat="44.7973254" lon="6.6899734"><ele></ele><time>2025-2-28T3:44:56Z</time></trkpt>
<trkpt lat="44.7971707" lon="6.6897856"><ele></ele><time>2025-2-28T3:44:59Z</time></trkpt>
<trkpt lat="44.7969701" lon="6.6897070"><ele></ele><time>2025-2-28T3:45:2Z</time></trkpt>
<trkpt lat="44.7967766" lon="6.6896463"><ele></ele><time>2025-2-28T3:45:5Z</time></trkpt>
<trkpt lat="44.7967178" lon="6.6893852"><ele></ele><time>2025-2-28T3:45:8Z</time></trkpt>
<trkpt lat="44.7968251" lon="6.6891666"><ele></ele><time>2025-2-28T3:45:11Z</time></trkpt>
<trkpt lat="44.7968860" lon="6.6889241"><ele></ele><time>2025-2-28T3:45:14Z</time></trkpt>
<trkpt lat="44.7967771" lon="6.6887159"><ele></ele><time>2025-2-28T3:45:17Z</time></trkpt>
<trkpt lat="44.7967051" lon="6.6884541"><ele></ele><time>2025-2-28T3:45:20Z</time></trkpt>
<trkpt lat="44.7965368" lon="6.6883091"><ele></ele><time>2025-2-28T3:45:23Z</time></trkpt>
<trkpt lat="44.7963777" lon="6.6881903"><ele></ele><time>2025-2-28T3:45:26Z</time></trkpt>
<trkpt lat="44.7962100" lon="6.6880934"><ele></ele><time>2025-2-28T3:45:29Z</time></trkpt>
<trkpt lat="44.7960382" lon="6.6880154"><ele></ele><time>2025-2-28T3:45:32Z</time></trkpt>
<trkpt lat="44.7958613" lon="6.6879445"><ele></ele><time>2025-2-28T3:45:35Z</time></trkpt>
<trkpt lat="44.7956867" lon="6.6878787"><ele></ele><time>2025-2-28T3:45:38Z</time></trkpt>
<trkpt lat="44.7955171" lon="6.6879753"><ele></ele><time>2025-2-28T3:45:41Z</time></trkpt>
<trkpt lat="44.7953862" lon="6.6881678"><ele></ele><time>2025-2-28T3:45:44Z</time></trkpt>
<trkpt lat="44.7952316" lon="6.6880259"><ele></ele><time>2025-2-28T3:45:47Z</time></trkpt>
<trkpt lat="44.7950423" lon="6.6880251"><ele></ele><time>2025-2-28T3:45:50Z</time></trkpt>
<trkpt lat="44.7948565" lon="6.6880670"><ele></ele><time>2025-2-28T3:45:53Z</time></trkpt>
<trkpt lat="44.7946736" lon="6.6880298"><ele></ele><time>2025-2-28T3:45:56Z</time></trkpt>
<trkpt lat="44.7945137" lon="6.6879011"><ele></ele><time>2025-2-28T3:45:59Z</time></trkpt>
<trkpt lat="44.7944463" lon="6.6876622"><ele></ele><time>2025-2-28T3:46:2Z</time></trkpt>
<trkpt lat="44.7944020" lon="6.6874064"><ele></ele><time>2025-2-28T3:46:5Z</time></trkpt>
<trkpt lat="44.7943210" lon="6.6871737"><ele></ele><time>2025-2-28T3:46:8Z</time></trkpt>
<trkpt lat="44.7941846" lon="6.6869922"><ele></ele><time>2025-2-28T3:46:11Z</time></trkpt>
<trkpt lat="44.7941089" lon="6.6867570"><ele></ele><time>2025-2-28T3:46:14Z</time></trkpt>
<trkpt lat="44.7940259" lon="6.6864826"><ele></ele><time>2025-2-28T3:46:17Z</time></trkpt>
<trkpt lat="44.7938693" lon="6.6862903"><ele></ele><time>2025-2-28T3:46:20Z</time></trkpt>
<trkpt lat="44.7936998" lon="6.6861806"><ele></ele><time>2025-2-28T3:46:23Z</time></trkpt>
<trkpt lat="44.7935932" lon="6.6859684"><ele></ele><time>2025-2-28T3:46:26Z</time></trkpt>
<trkpt lat="44.7934880" lon="6.6857194"><ele></ele><time>2025-2-28T3:46:29Z</time></trkpt>
<trkpt lat="44.7933996" lon="6.6854849"><ele></ele><time>2025-2-28T3:46:32Z</time></trkpt>
<trkpt lat="44.7932725" lon="6.6852908"><ele></ele><time>2025-2-28T3:46:35Z</time></trkpt>
<trkpt lat="44.7932348" lon="6.6850088"><ele></ele><time>2025-2-28T3:46:38Z</time></trkpt>
<trkpt lat="44.7931978" lon="6.6847503"><ele></ele><time>2025-2-28T3:46:41Z</time></trkpt>
<trkpt lat="44.7931481" lon="6.6844989"><ele></ele><time>2025-2-28T3:46:44Z</time></trkpt>
<trkpt lat="44.7931839" lon="6.6842248"><ele></ele><time>2025-2-28T3:46:47Z</time></trkpt>
<trkpt lat="44.7931848" lon="6.6839445"><ele></ele><time>2025-2-28T3:46:50Z</time></trkpt>
<trkpt lat="44.7931996" lon="6.6836752"><ele></ele><time>2025-2-28T3:46:53Z</time></trkpt>
<trkpt lat="44.7931779" lon="6.6834130"><ele></ele><time>2025-2-28T3:46:56Z</time></trkpt>
<trkpt lat="44.7931298" lon="6.6831687"><ele></ele><time>2025-2-28T3:46:59Z</time></trkpt>
<trkpt lat="44.7930173" lon="6.6829684"><ele></ele><time>2025-2-28T3:47:2Z</time></trkpt>
<trkpt lat="44.7929920" lon="6.6827172"><ele></ele><time>2025-2-28T3:47:5Z</time></trkpt>
<trkpt lat="44.7929681" lon="6.6824464"><ele></ele><time>2025-2-28T3:47:8Z</time></trkpt>
<trkpt lat="44.7929920" lon="6.6821873"><ele></ele><time>2025-2-28T3:47:11Z</time></trkpt>
<trkpt lat="44.7929488" lon="6.6819168"><ele></ele><time>2025-2-28T3:47:14Z</time></trkpt>
<trkpt lat="44.7928638" lon="6.6816641"><ele></ele><time>2025-2-28T3:47:17Z</time></trkpt>
<trkpt lat="44.7928134" lon="6.6814197"><ele></ele><time>2025-2-28T3:47:20Z</time></trkpt>
<trkpt lat="44.7927476" lon="6.6811653"><ele></ele><time>2025-2-28T3:47:23Z</time></trkpt>
<trkpt lat="44.7927041" lon="6.6808955"><ele></ele><time>2025-2-28T3:47:26Z</time></trkpt>
<trkpt lat="44.7926195" lon="6.6806514"><ele></ele><time>2025-2-28T3:47:29Z</time></trkpt>
<trkpt lat="44.7925023" lon="6.6804233"><ele></ele><time>2025-2-28T3:47:32Z</time></trkpt>
<trkpt lat="44.7924027" lon="6.6801803"><ele></ele><time>2025-2-28T3:47:35Z</time></trkpt>
<trkpt lat="44.7923147" lon="6.6799364"><ele></ele><time>2025-2-28T3:47:38Z</time></trkpt>
<trkpt lat="44.7922541" lon="6.6796950"><ele></ele><time>2025-2-28T3:47:41Z</time></trkpt>
<trkpt lat="44.7921944" lon="6.6794369"><ele></ele><time>2025-2-28T3:47:44Z</time></trkpt>
<trkpt lat="44.7921467" lon="6.6791837"><ele></ele><time>2025-2-28T3:47:47Z</time></trkpt>
<trkpt lat="44.7920706" lon="6.6789394"><ele></ele><time>2025-2-28T3:47:50Z</time></trkpt>
<trkpt lat="44.7920491" lon="6.6786767"><ele></ele><time>2025-2-28T3:47:53Z</time></trkpt>
<trkpt lat="44.7920827" lon="6.6784255"><ele></ele><time>2025-2-28T3:47:56Z</time></trkpt>
<trkpt lat="44.7920436" lon="6.6781501"><ele></ele><time>2025-2-28T3:47:59Z</time></trkpt>
<trkpt lat="44.7920053" lon="6.6778757"><ele></ele><time>2025-2-28T3:48:2Z</time></trkpt>
<trkpt lat="44.7919948" lon="6.6776119"><ele></ele><time>2025-2-28T3:48:5Z</time></trkpt>
<trkpt lat="44.7919856" lon="6.6773578"><ele></ele><time>2025-2-28T3:48:8Z</time></trkpt>
<trkpt lat="44.7920045" lon="6.6770880"><ele></ele><time>2025-2-28T3:48:11Z</time></trkpt>
<trkpt lat="44.7919661" lon="6.6768055"><ele></ele><time>2025-2-28T3:48:14Z</time></trkpt>
<trkpt lat="44.7918753" lon="6.6765118"><ele></ele><time>2025-2-28T3:48:17Z</time></trkpt>
<trkpt lat="44.7918432" lon="6.6762542"><ele></ele><time>2025-2-28T3:48:20Z</time></trkpt>
<trkpt lat="44.7918138" lon="6.6759920"><ele></ele><time>2025-2-28T3:48:23Z</time></trkpt>
<trkpt lat="44.7918001" lon="6.6757203"><ele></ele><time>2025-2-28T3:48:26Z</time></trkpt>
<trkpt lat="44.7917445" lon="6.6754568"><ele></ele><time>2025-2-28T3:48:29Z</time></trkpt>
<trkpt lat="44.7916209" lon="6.6752652"><ele></ele><time>2025-2-28T3:48:32Z</time></trkpt>
<trkpt lat="44.7916944" lon="6.6750337"><ele></ele><time>2025-2-28T3:48:35Z</time></trkpt>
<trkpt lat="44.7917972" lon="6.6748208"><ele></ele><time>2025-2-28T3:48:38Z</time></trkpt>
<trkpt lat="44.7917922" lon="6.6745512"><ele></ele><time>2025-2-28T3:48:41Z</time></trkpt>
<trkpt lat="44.7918102" lon="6.6742892"><ele></ele><time>2025-2-28T3:48:44Z</time></trkpt>
<trkpt lat="44.7918204" lon="6.6740280"><ele></ele><time>2025-2-28T3:48:47Z</time></trkpt>
<trkpt lat="44.7918647" lon="6.6737749"><ele></ele><time>2025-2-28T3:48:50Z</time></trkpt>
<trkpt lat="44.7918778" lon="6.6735174"><ele></ele><time>2025-2-28T3:48:53Z</time></trkpt>
<trkpt lat="44.7919027" lon="6.6732488"><ele></ele><time>2025-2-28T3:48:56Z</time></trkpt>
<trkpt lat="44.7919130" lon="6.6729742"><ele></ele><time>2025-2-28T3:48:59Z</time></trkpt>
<trkpt lat="44.7919269" lon="6.6727075"><ele></ele><time>2025-2-28T3:49:2Z</time></trkpt>
<trkpt lat="44.7918990" lon="6.6724481"><ele></ele><time>2025-2-28T3:49:5Z</time></trkpt>
<trkpt lat="44.7918442" lon="6.6721786"><ele></ele><time>2025-2-28T3:49:8Z</time></trkpt>
<trkpt lat="44.7917793" lon="6.6719210"><ele></ele><time>2025-2-28T3:49:11Z</time></trkpt>
<trkpt lat="44.7917234" lon="6.6716664"><ele></ele><time>2025-2-28T3:49:14Z</time></trkpt>
<trkpt lat="44.7916485" lon="6.6714326"><ele></ele><time>2025-2-28T3:49:17Z</time></trkpt>
<trkpt lat="44.7916001" lon="6.6711857"><ele></ele><time>2025-2-28T3:49:20Z</time></trkpt>
<trkpt lat="44.7914291" lon="6.6710925"><ele></ele><time>2025-2-28T3:49:23Z</time></trkpt>
<trkpt lat="44.7913050" lon="6.6709087"><ele></ele><time>2025-2-28T3:49:26Z</time></trkpt>
<trkpt lat="44.7912125" lon="6.6706867"><ele></ele><time>2025-2-28T3:49:29Z</time></trkpt>
<trkpt lat="44.7910606" lon="6.6705451"><ele></ele><time>2025-2-28T3:49:32Z</time></trkpt>
<trkpt lat="44.7908799" lon="6.6705547"><ele></ele><time>2025-2-28T3:49:35Z</time></trkpt>
<trkpt lat="44.7907126" lon="6.6704520"><ele></ele><time>2025-2-28T3:49:38Z</time></trkpt>
<trkpt lat="44.7905434" lon="6.6703418"><ele></ele><time>2025-2-28T3:49:41Z</time></trkpt>
<trkpt lat="44.7904435" lon="6.6701269"><ele></ele><time>2025-2-28T3:49:44Z</time></trkpt>
<trkpt lat="44.7902751" lon="6.6700194"><ele></ele><time>2025-2-28T3:49:47Z</time></trkpt>
<trkpt lat="44.7900887" lon="6.6700654"><ele></ele><time>2025-2-28T3:49:50Z</time></trkpt>
<trkpt lat="44.7899022" lon="6.6701035"><ele></ele><time>2025-2-28T3:49:53Z</time></trkpt>
<trkpt lat="44.7897186" lon="6.6701466"><ele></ele><time>2025-2-28T3:49:56Z</time></trkpt>
<trkpt lat="44.7895363" lon="6.6701655"><ele></ele><time>2025-2-28T3:49:59Z</time></trkpt>
<trkpt lat="44.7893634" lon="6.6702717"><ele></ele><time>2025-2-28T3:50:2Z</time></trkpt>
<trkpt lat="44.7891810" lon="6.6702894"><ele></ele><time>2025-2-28T3:50:5Z</time></trkpt>
<trkpt lat="44.7889979" lon="6.6702986"><ele></ele><time>2025-2-28T3:50:8Z</time></trkpt>
<trkpt lat="44.7888114" lon="6.6703099"><ele></ele><time>2025-2-28T3:50:11Z</time></trkpt>
<trkpt lat="44.7886470" lon="6.6704205"><ele></ele><time>2025-2-28T3:50:14Z</time></trkpt>
<trkpt lat="44.7884602" lon="6.6705106"><ele></ele><time>2025-2-28T3:50:17Z</time></trkpt>
<trkpt lat="44.7882860" lon="6.6705947"><ele></ele><time>2025-2-28T3:50:20Z</time></trkpt>
<trkpt lat="44.7880987" lon="6.6705947"><ele></ele><time>2025-2-28T3:50:23Z</time></trkpt>
<trkpt lat="44.7878886" lon="6.6705952"><ele></ele><time>2025-2-28T3:50:26Z</time></trkpt>
<trkpt lat="44.7876959" lon="6.6706494"><ele></ele><time>2025-2-28T3:50:29Z</time></trkpt>
<trkpt lat="44.7875425" lon="6.6708014"><ele></ele><time>2025-2-28T3:50:32Z</time></trkpt>
<trkpt lat="44.7873838" lon="6.6709559"><ele></ele><time>2025-2-28T3:50:35Z</time></trkpt>
<trkpt lat="44.7872027" lon="6.6710348"><ele></ele><time>2025-2-28T3:50:38Z</time></trkpt>
<trkpt lat="44.7871019" lon="6.6712703"><ele></ele><time>2025-2-28T3:50:41Z</time></trkpt>
<trkpt lat="44.7870369" lon="6.6715177"><ele></ele><time>2025-2-28T3:50:44Z</time></trkpt>
<trkpt lat="44.7868647" lon="6.6715926"><ele></ele><time>2025-2-28T3:50:47Z</time></trkpt>
<trkpt lat="44.7866836" lon="6.6715760"><ele></ele><time>2025-2-28T3:50:50Z</time></trkpt>
<trkpt lat="44.7864977" lon="6.6715836"><ele></ele><time>2025-2-28T3:50:53Z</time></trkpt>
<trkpt lat="44.7863237" lon="6.6716503"><ele></ele><time>2025-2-28T3:50:56Z</time></trkpt>
<trkpt lat="44.7861864" lon="6.6718176"><ele></ele><time>2025-2-28T3:50:59Z</time></trkpt>
<trkpt lat="44.7859985" lon="6.6718567"><ele></ele><time>2025-2-28T3:51:2Z</time></trkpt>
<trkpt lat="44.7858566" lon="6.6720176"><ele></ele><time>2025-2-28T3:51:5Z</time></trkpt>
<trkpt lat="44.7856717" lon="6.6720631"><ele></ele><time>2025-2-28T3:51:8Z</time></trkpt>
<trkpt lat="44.7855131" lon="6.6721892"><ele></ele><time>2025-2-28T3:51:11Z</time></trkpt>
<trkpt lat="44.7853598" lon="6.6723334"><ele></ele><time>2025-2-28T3:51:14Z</time></trkpt>
<trkpt lat="44.7852110" lon="6.6724825"><ele></ele><time>2025-2-28T3:51:17Z</time></trkpt>
<trkpt lat="44.7850441" lon="6.6726035"><ele></ele><time>2025-2-28T3:51:20Z</time></trkpt>
<trkpt lat="44.7848709" lon="6.6726749"><ele></ele><time>2025-2-28T3:51:23Z</time></trkpt>
<trkpt lat="44.7846919" lon="6.6727374"><ele></ele><time>2025-2-28T3:51:26Z</time></trkpt>
<trkpt lat="44.7845381" lon="6.6729339"><ele></ele><time>2025-2-28T3:51:29Z</time></trkpt>
<trkpt lat="44.7843728" lon="6.6730580"><ele></ele><time>2025-2-28T3:51:32Z</time></trkpt>
<trkpt lat="44.7841834" lon="6.6731471"><ele></ele><time>2025-2-28T3:51:35Z</time></trkpt>
<trkpt lat="44.7840895" lon="6.6733812"><ele></ele><time>2025-2-28T3:51:38Z</time></trkpt>
<trkpt lat="44.7838920" lon="6.6734321"><ele></ele><time>2025-2-28T3:51:41Z</time></trkpt>
<trkpt lat="44.7837292" lon="6.6735519"><ele></ele><time>2025-2-28T3:51:44Z</time></trkpt>
<trkpt lat="44.7835818" lon="6.6737346"><ele></ele><time>2025-2-28T3:51:47Z</time></trkpt>
<trkpt lat="44.7834481" lon="6.6739323"><ele></ele><time>2025-2-28T3:51:50Z</time></trkpt>
<trkpt lat="44.7832975" lon="6.6740850"><ele></ele><time>2025-2-28T3:51:53Z</time></trkpt>
<trkpt lat="44.7831192" lon="6.6741208"><ele></ele><time>2025-2-28T3:51:56Z</time></trkpt>
<trkpt lat="44.7829986" lon="6.6743247"><ele></ele><time>2025-2-28T3:51:59Z</time></trkpt>
<trkpt lat="44.7828586" lon="6.6745152"><ele></ele><time>2025-2-28T3:52:2Z</time></trkpt>
<trkpt lat="44.7827366" lon="6.6747303"><ele></ele><time>2025-2-28T3:52:5Z</time></trkpt>
<trkpt lat="44.7827090" lon="6.6750207"><ele></ele><time>2025-2-28T3:52:8Z</time></trkpt>
<trkpt lat="44.7825993" lon="6.6752884"><ele></ele><time>2025-2-28T3:52:11Z</time></trkpt>
<trkpt lat="44.7824360" lon="6.6754740"><ele></ele><time>2025-2-28T3:52:14Z</time></trkpt>
<trkpt lat="44.7822575" lon="6.6756072"><ele></ele><time>2025-2-28T3:52:17Z</time></trkpt>
<trkpt lat="44.7821100" lon="6.6757834"><ele></ele><time>2025-2-28T3:52:20Z</time></trkpt>
<trkpt lat="44.7819269" lon="6.6759421"><ele></ele><time>2025-2-28T3:52:23Z</time></trkpt>
<trkpt lat="44.7817545" lon="6.6760863"><ele></ele><time>2025-2-28T3:52:26Z</time></trkpt>
<trkpt lat="44.7816765" lon="6.6763581"><ele></ele><time>2025-2-28T3:52:29Z</time></trkpt>
<trkpt lat="44.7816162" lon="6.6766013"><ele></ele><time>2025-2-28T3:52:32Z</time></trkpt>
<trkpt lat="44.7815250" lon="6.6768453"><ele></ele><time>2025-2-28T3:52:35Z</time></trkpt>
<trkpt lat="44.7814543" lon="6.6771004"><ele></ele><time>2025-2-28T3:52:38Z</time></trkpt>
<trkpt lat="44.7813482" lon="6.6773310"><ele></ele><time>2025-2-28T3:52:41Z</time></trkpt>
<trkpt lat="44.7812327" lon="6.6775295"><ele></ele><time>2025-2-28T3:52:44Z</time></trkpt>
<trkpt lat="44.7811770" lon="6.6778011"><ele></ele><time>2025-2-28T3:52:47Z</time></trkpt>
<trkpt lat="44.7810608" lon="6.6780186"><ele></ele><time>2025-2-28T3:52:50Z</time></trkpt>
<trkpt lat="44.7809500" lon="6.6782263"><ele></ele><time>2025-2-28T3:52:53Z</time></trkpt>
<trkpt lat="44.7808039" lon="6.6784172"><ele></ele><time>2025-2-28T3:52:56Z</time></trkpt>
<trkpt lat="44.7806845" lon="6.6786071"><ele></ele><time>2025-2-28T3:52:59Z</time></trkpt>
<trkpt lat="44.7805604" lon="6.6787936"><ele></ele><time>2025-2-28T3:53:2Z</time></trkpt>
<trkpt lat="44.7804141" lon="6.6789426"><ele></ele><time>2025-2-28T3:53:5Z</time></trkpt>
<trkpt lat="44.7803177" lon="6.6791637"><ele></ele><time>2025-2-28T3:53:8Z</time></trkpt>
<trkpt lat="44.7801640" lon="6.6792977"><ele></ele><time>2025-2-28T3:53:11Z</time></trkpt>
<trkpt lat="44.7800417" lon="6.6794879"><ele></ele><time>2025-2-28T3:53:14Z</time></trkpt>
<trkpt lat="44.7799186" lon="6.6797062"><ele></ele><time>2025-2-28T3:53:17Z</time></trkpt>
<trkpt lat="44.7797927" lon="6.6798938"><ele></ele><time>2025-2-28T3:53:20Z</time></trkpt>
<trkpt lat="44.7799653" lon="6.6800195"><ele></ele><time>2025-2-28T3:53:23Z</time></trkpt>
<trkpt lat="44.7801496" lon="6.6800469"><ele></ele><time>2025-2-28T3:53:26Z</time></trkpt>
<trkpt lat="44.7803301" lon="6.6800176"><ele></ele><time>2025-2-28T3:53:29Z</time></trkpt>
<trkpt lat="44.7805292" lon="6.6799707"><ele></ele><time>2025-2-28T3:53:32Z</time></trkpt>
<trkpt lat="44.7807186" lon="6.6799240"><ele></ele><time>2025-2-28T3:53:35Z</time></trkpt>
<trkpt lat="44.7808989" lon="6.6798507"><ele></ele><time>2025-2-28T3:53:38Z</time></trkpt>
<trkpt lat="44.7810896" lon="6.6798332"><ele></ele><time>2025-2-28T3:53:41Z</time></trkpt>
<trkpt lat="44.7812793" lon="6.6798617"><ele></ele><time>2025-2-28T3:53:44Z</time></trkpt>
<trkpt lat="44.7813842" lon="6.6800752"><ele></ele><time>2025-2-28T3:53:47Z</time></trkpt>
<trkpt lat="44.7815225" lon="6.6802593"><ele></ele><time>2025-2-28T3:53:50Z</time></trkpt>
<trkpt lat="44.7817130" lon="6.6802708"><ele></ele><time>2025-2-28T3:53:53Z</time></trkpt>
<trkpt lat="44.7818880" lon="6.6803338"><ele></ele><time>2025-2-28T3:53:56Z</time></trkpt>
<trkpt lat="44.7820703" lon="6.6803927"><ele></ele><time>2025-2-28T3:53:59Z</time></trkpt>
<trkpt lat="44.7822499" lon="6.6803765"><ele></ele><time>2025-2-28T3:54:2Z</time></trkpt>
<trkpt lat="44.7824259" lon="6.6804310"><ele></ele><time>2025-2-28T3:54:5Z</time></trkpt>
<trkpt lat="44.7826166" lon="6.6804066"><ele></ele><time>2025-2-28T3:54:8Z</time></trkpt>
<trkpt lat="44.7828179" lon="6.6803981"><ele></ele><time>2025-2-28T3:54:11Z</time></trkpt>
<trkpt lat="44.7830072" lon="6.6804044"><ele></ele><time>2025-2-28T3:54:14Z</time></trkpt>
<trkpt lat="44.7831898" lon="6.6803890"><ele></ele><time>2025-2-28T3:54:17Z</time></trkpt>
<trkpt lat="44.7833698" lon="6.6803509"><ele></ele><time>2025-2-28T3:54:20Z</time></trkpt>
<trkpt lat="44.7834075" lon="6.6806082"><ele></ele><time>2025-2-28T3:54:23Z</time></trkpt>
<trkpt lat="44.7835933" lon="6.6806517"><ele></ele><time>2025-2-28T3:54:26Z</time></trkpt>
<trkpt lat="44.7837758" lon="6.6806208"><ele></ele><time>2025-2-28T3:54:29Z</time></trkpt>
<trkpt lat="44.7839584" lon="6.6806595"><ele></ele><time>2025-2-28T3:54:32Z</time></trkpt>
<trkpt lat="44.7841379" lon="6.6806839"><ele></ele><time>2025-2-28T3:54:35Z</time></trkpt>
<trkpt lat="44.7843141" lon="6.6808084"><ele></ele><time>2025-2-28T3:54:38Z</time></trkpt>
<trkpt lat="44.7844808" lon="6.6809571"><ele></ele><time>2025-2-28T3:54:41Z</time></trkpt>
<trkpt lat="44.7845801" lon="6.6811808"><ele></ele><time>2025-2-28T3:54:44Z</time></trkpt>
<trkpt lat="44.7847166" lon="6.6813741"><ele></ele><time>2025-2-28T3:54:47Z</time></trkpt>
<trkpt lat="44.7848905" lon="6.6814486"><ele></ele><time>2025-2-28T3:54:50Z</time></trkpt>
<trkpt lat="44.7850519" lon="6.6816245"><ele></ele><time>2025-2-28T3:54:53Z</time></trkpt>
<trkpt lat="44.7851936" lon="6.6817821"><ele></ele><time>2025-2-28T3:54:56Z</time></trkpt>
<trkpt lat="44.7853587" lon="6.6818849"><ele></ele><time>2025-2-28T3:54:59Z</time></trkpt>
<trkpt lat="44.7854902" lon="6.6820691"><ele></ele><time>2025-2-28T3:55:2Z</time></trkpt>
<trkpt lat="44.7856712" lon="6.6821369"><ele></ele><time>2025-2-28T3:55:5Z</time></trkpt>
<trkpt lat="44.7857917" lon="6.6823436"><ele></ele><time>2025-2-28T3:55:8Z</time></trkpt>
<trkpt lat="44.7859163" lon="6.6825275"><ele></ele><time>2025-2-28T3:55:11Z</time></trkpt>
<trkpt lat="44.7860533" lon="6.6826997"><ele></ele><time>2025-2-28T3:55:14Z</time></trkpt>
<trkpt lat="44.7862035" lon="6.6829262"><ele></ele><time>2025-2-28T3:55:17Z</time></trkpt>
<trkpt lat="44.7863689" lon="6.6831002"><ele></ele><time>2025-2-28T3:55:20Z</time></trkpt>
<trkpt lat="44.7865436" lon="6.6831804"><ele></ele><time>2025-2-28T3:55:23Z</time></trkpt>
<trkpt lat="44.7867079" lon="6.6833202"><ele></ele><time>2025-2-28T3:55:26Z</time></trkpt>
<trkpt lat="44.7868887" lon="6.6835020"><ele></ele><time>2025-2-28T3:55:29Z</time></trkpt>
<trkpt lat="44.7870431" lon="6.6836513"><ele></ele><time>2025-2-28T3:55:32Z</time></trkpt>
<trkpt lat="44.7872079" lon="6.6837617"><ele></ele><time>2025-2-28T3:55:35Z</time></trkpt>
<trkpt lat="44.7874034" lon="6.6838476"><ele></ele><time>2025-2-28T3:55:38Z</time></trkpt>
<trkpt lat="44.7875915" lon="6.6838822"><ele></ele><time>2025-2-28T3:55:41Z</time></trkpt>
<trkpt lat="44.7877947" lon="6.6839275"><ele></ele><time>2025-2-28T3:55:44Z</time></trkpt>
<trkpt lat="44.7880006" lon="6.6839753"><ele></ele><time>2025-2-28T3:55:47Z</time></trkpt>
<trkpt lat="44.7881780" lon="6.6840929"><ele></ele><time>2025-2-28T3:55:50Z</time></trkpt>
<trkpt lat="44.7882802" lon="6.6843391"><ele></ele><time>2025-2-28T3:55:53Z</time></trkpt>
<trkpt lat="44.7884006" lon="6.6846281"><ele></ele><time>2025-2-28T3:55:56Z</time></trkpt>
<trkpt lat="44.7884863" lon="6.6848621"><ele></ele><time>2025-2-28T3:55:59Z</time></trkpt>
<trkpt lat="44.7885802" lon="6.6851140"><ele></ele><time>2025-2-28T3:56:2Z</time></trkpt>
<trkpt lat="44.7887538" lon="6.6852222"><ele></ele><time>2025-2-28T3:56:5Z</time></trkpt>
<trkpt lat="44.7889474" lon="6.6853174"><ele></ele><time>2025-2-28T3:56:8Z</time></trkpt>
<trkpt lat="44.7891150" lon="6.6854625"><ele></ele><time>2025-2-28T3:56:11Z</time></trkpt>
<trkpt lat="44.7892898" lon="6.6856470"><ele></ele><time>2025-2-28T3:56:14Z</time></trkpt>
<trkpt lat="44.7894771" lon="6.6858280"><ele></ele><time>2025-2-28T3:56:17Z</time></trkpt>
<trkpt lat="44.7896396" lon="6.6859588"><ele></ele><time>2025-2-28T3:56:20Z</time></trkpt>
<trkpt lat="44.7897542" lon="6.6861736"><ele></ele><time>2025-2-28T3:56:23Z</time></trkpt>
<trkpt lat="44.7898635" lon="6.6863834"><ele></ele><time>2025-2-28T3:56:26Z</time></trkpt>
<trkpt lat="44.7900521" lon="6.6864493"><ele></ele><time>2025-2-28T3:56:29Z</time></trkpt>
<trkpt lat="44.7902366" lon="6.6864277"><ele></ele><time>2025-2-28T3:56:32Z</time></trkpt>
<trkpt lat="44.7904303" lon="6.6864643"><ele></ele><time>2025-2-28T3:56:35Z</time></trkpt>
<trkpt lat="44.7906124" lon="6.6865068"><ele></ele><time>2025-2-28T3:56:38Z</time></trkpt>
<trkpt lat="44.7907944" lon="6.6865757"><ele></ele><time>2025-2-28T3:56:41Z</time></trkpt>
<trkpt lat="44.7909965" lon="6.6865579"><ele></ele><time>2025-2-28T3:56:44Z</time></trkpt>
<trkpt lat="44.7911855" lon="6.6866007"><ele></ele><time>2025-2-28T3:56:47Z</time></trkpt>
<trkpt lat="44.7913704" lon="6.6866635"><ele></ele><time>2025-2-28T3:56:50Z</time></trkpt>
<trkpt lat="44.7915124" lon="6.6868483"><ele></ele><time>2025-2-28T3:56:53Z</time></trkpt>
<trkpt lat="44.7916557" lon="6.6870638"><ele></ele><time>2025-2-28T3:56:56Z</time></trkpt>
<trkpt lat="44.7918276" lon="6.6872423"><ele></ele><time>2025-2-28T3:56:59Z</time></trkpt>
<trkpt lat="44.7919807" lon="6.6874634"><ele></ele><time>2025-2-28T3:57:2Z</time></trkpt>
<trkpt lat="44.7920790" lon="6.6876898"><ele></ele><time>2025-2-28T3:57:5Z</time></trkpt>
<trkpt lat="44.7921427" lon="6.6879656"><ele></ele><time>2025-2-28T3:57:8Z</time></trkpt>
<trkpt lat="44.7921985" lon="6.6882171"><ele></ele><time>2025-2-28T3:57:11Z</time></trkpt>
<trkpt lat="44.7922509" lon="6.6884627"><ele></ele><time>2025-2-28T3:57:14Z</time></trkpt>
<trkpt lat="44.7923336" lon="6.6887044"><ele></ele><time>2025-2-28T3:57:17Z</time></trkpt>
<trkpt lat="44.7924287" lon="6.6889758"><ele></ele><time>2025-2-28T3:57:20Z</time></trkpt>
<trkpt lat="44.7925120" lon="6.6892078"><ele></ele><time>2025-2-28T3:57:23Z</time></trkpt>
<trkpt lat="44.7925837" lon="6.6894594"><ele></ele><time>2025-2-28T3:57:26Z</time></trkpt>
<trkpt lat="44.7926400" lon="6.6897144"><ele></ele><time>2025-2-28T3:57:29Z</time></trkpt>
<trkpt lat="44.7926894" lon="6.6899717"><ele></ele><time>2025-2-28T3:57:32Z</time></trkpt>
<trkpt lat="44.7927538" lon="6.6902457"><ele></ele><time>2025-2-28T3:57:35Z</time></trkpt>
<trkpt lat="44.7928121" lon="6.6905163"><ele></ele><time>2025-2-28T3:57:38Z</time></trkpt>
<trkpt lat="44.7928509" lon="6.6907988"><ele></ele><time>2025-2-28T3:57:41Z</time></trkpt>
<trkpt lat="44.7928811" lon="6.6910734"><ele></ele><time>2025-2-28T3:57:44Z</time></trkpt>
<trkpt lat="44.7929468" lon="6.6913445"><ele></ele><time>2025-2-28T3:57:47Z</time></trkpt>
<trkpt lat="44.7931085" lon="6.6915319"><ele></ele><time>2025-2-28T3:57:50Z</time></trkpt>
<trkpt lat="44.7932629" lon="6.6916690"><ele></ele><time>2025-2-28T3:57:53Z</time></trkpt>
<trkpt lat="44.7934155" lon="6.6918177"><ele></ele><time>2025-2-28T3:57:56Z</time></trkpt>
<trkpt lat="44.7935686" lon="6.6919760"><ele></ele><time>2025-2-28T3:57:59Z</time></trkpt>
<trkpt lat="44.7937124" lon="6.6921402"><ele></ele><time>2025-2-28T3:58:2Z</time></trkpt>
<trkpt lat="44.7938317" lon="6.6923678"><ele></ele><time>2025-2-28T3:58:5Z</time></trkpt>
<trkpt lat="44.7939626" lon="6.6925469"><ele></ele><time>2025-2-28T3:58:8Z</time></trkpt>
<trkpt lat="44.7937868" lon="6.6926199"><ele></ele><time>2025-2-28T3:58:11Z</time></trkpt>
<trkpt lat="44.7936346" lon="6.6927700"><ele></ele><time>2025-2-28T3:58:14Z</time></trkpt>
<trkpt lat="44.7934581" lon="6.6928643"><ele></ele><time>2025-2-28T3:58:17Z</time></trkpt>
<trkpt lat="44.7935810" lon="6.6930545"><ele></ele><time>2025-2-28T3:58:20Z</time></trkpt>
<trkpt lat="44.7937621" lon="6.6931809"><ele></ele><time>2025-2-28T3:58:23Z</time></trkpt>
<trkpt lat="44.7939408" lon="6.6933140"><ele></ele><time>2025-2-28T3:58:26Z</time></trkpt>
<trkpt lat="44.7940991" lon="6.6934921"><ele></ele><time>2025-2-28T3:58:29Z</time></trkpt>
<trkpt lat="44.7942023" lon="6.6937029"><ele></ele><time>2025-2-28T3:58:32Z</time></trkpt>
<trkpt lat="44.7943745" lon="6.6938752"><ele></ele><time>2025-2-28T3:58:35Z</time></trkpt>
<trkpt lat="44.7945274" lon="6.6940142"><ele></ele><time>2025-2-28T3:58:38Z</time></trkpt>
<trkpt lat="44.7946861" lon="6.6941574"><ele></ele><time>2025-2-28T3:58:41Z</time></trkpt>
<trkpt lat="44.7948456" lon="6.6942805"><ele></ele><time>2025-2-28T3:58:44Z</time></trkpt>
<trkpt lat="44.7950277" lon="6.6943502"><ele></ele><time>2025-2-28T3:58:47Z</time></trkpt>
<trkpt lat="44.7951992" lon="6.6944515"><ele></ele><time>2025-2-28T3:58:50Z</time></trkpt>
<trkpt lat="44.7953590" lon="6.6946060"><ele></ele><time>2025-2-28T3:58:53Z</time></trkpt>
<trkpt lat="44.7954808" lon="6.6948030"><ele></ele><time>2025-2-28T3:58:56Z</time></trkpt>
<trkpt lat="44.7956605" lon="6.6949198"><ele></ele><time>2025-2-28T3:58:59Z</time></trkpt>
<trkpt lat="44.7958526" lon="6.6949074"><ele></ele><time>2025-2-28T3:59:2Z</time></trkpt>
<trkpt lat="44.7960362" lon="6.6949880"><ele></ele><time>2025-2-28T3:59:5Z</time></trkpt>
<trkpt lat="44.7961854" lon="6.6951736"><ele></ele><time>2025-2-28T3:59:8Z</time></trkpt>
<trkpt lat="44.7963572" lon="6.6952800"><ele></ele><time>2025-2-28T3:59:11Z</time></trkpt>
<trkpt lat="44.7965222" lon="6.6954224"><ele></ele><time>2025-2-28T3:59:14Z</time></trkpt>
<trkpt lat="44.7966736" lon="6.6955698"><ele></ele><time>2025-2-28T3:59:17Z</time></trkpt>
<trkpt lat="44.7968497" lon="6.6956649"><ele></ele><time>2025-2-28T3:59:20Z</time></trkpt>
<trkpt lat="44.7970290" lon="6.6956992"><ele></ele><time>2025-2-28T3:59:23Z</time></trkpt>
<trkpt lat="44.7972030" lon="6.6957750"><ele></ele><time>2025-2-28T3:59:26Z</time></trkpt>
<trkpt lat="44.7973723" lon="6.6958969"><ele></ele><time>2025-2-28T3:59:29Z</time></trkpt>
<trkpt lat="44.7975277" lon="6.6960313"><ele></ele><time>2025-2-28T3:59:32Z</time></trkpt>
<trkpt lat="44.7974621" lon="6.6962751"><ele></ele><time>2025-2-28T3:59:35Z</time></trkpt>
<trkpt lat="44.7972808" lon="6.6963433"><ele></ele><time>2025-2-28T3:59:38Z</time></trkpt>
<trkpt lat="44.7970948" lon="6.6963188"><ele></ele><time>2025-2-28T3:59:41Z</time></trkpt>
<trkpt lat="44.7968996" lon="6.6963267"><ele></ele><time>2025-2-28T3:59:44Z</time></trkpt>
<trkpt lat="44.7967072" lon="6.6963495"><ele></ele><time>2025-2-28T3:59:47Z</time></trkpt>
<trkpt lat="44.7965229" lon="6.6963746"><ele></ele><time>2025-2-28T3:59:50Z</time></trkpt>
<trkpt lat="44.7963389" lon="6.6963667"><ele></ele><time>2025-2-28T3:59:53Z</time></trkpt>
<trkpt lat="44.7964035" lon="6.6966117"><ele></ele><time>2025-2-28T3:59:56Z</time></trkpt>
<trkpt lat="44.7964663" lon="6.6968506"><ele></ele><time>2025-2-28T3:59:59Z</time></trkpt>
<trkpt lat="44.7964823" lon="6.6971268"><ele></ele><time>2025-2-28T4:0:2Z</time></trkpt>
<trkpt lat="44.7965283" lon="6.6973778"><ele></ele><time>2025-2-28T4:0:5Z</time></trkpt>
<trkpt lat="44.7964895" lon="6.6971213"><ele></ele><time>2025-2-28T4:0:8Z</time></trkpt>
<trkpt lat="44.7964679" lon="6.6968683"><ele></ele><time>2025-2-28T4:0:11Z</time></trkpt>
<trkpt lat="44.7963774" lon="6.6966277"><ele></ele><time>2025-2-28T4:0:14Z</time></trkpt>
<trkpt lat="44.7963025" lon="6.6963420"><ele></ele><time>2025-2-28T4:0:17Z</time></trkpt>
<trkpt lat="44.7967634" lon="6.6963705"><ele></ele><time>2025-2-28T4:0:20Z</time></trkpt>
<trkpt lat="44.7969493" lon="6.6963477"><ele></ele><time>2025-2-28T4:0:23Z</time></trkpt>
<trkpt lat="44.7971597" lon="6.6963334"><ele></ele><time>2025-2-28T4:0:26Z</time></trkpt>
<trkpt lat="44.7973453" lon="6.6963320"><ele></ele><time>2025-2-28T4:0:29Z</time></trkpt>
<trkpt lat="44.7975334" lon="6.6962658"><ele></ele><time>2025-2-28T4:0:32Z</time></trkpt>
<trkpt lat="44.7976770" lon="6.6961006"><ele></ele><time>2025-2-28T4:0:35Z</time></trkpt>
<trkpt lat="44.7977680" lon="6.6958550"><ele></ele><time>2025-2-28T4:0:38Z</time></trkpt>
<trkpt lat="44.7979356" lon="6.6957274"><ele></ele><time>2025-2-28T4:0:41Z</time></trkpt>
<trkpt lat="44.7981278" lon="6.6957437"><ele></ele><time>2025-2-28T4:0:44Z</time></trkpt>
<trkpt lat="44.7980690" lon="6.6954937"><ele></ele><time>2025-2-28T4:0:47Z</time></trkpt>
<trkpt lat="44.7979496" lon="6.6952980"><ele></ele><time>2025-2-28T4:0:50Z</time></trkpt>
<trkpt lat="44.7980718" lon="6.6950890"><ele></ele><time>2025-2-28T4:0:53Z</time></trkpt>
<trkpt lat="44.7982652" lon="6.6951004"><ele></ele><time>2025-2-28T4:0:56Z</time></trkpt>
<trkpt lat="44.7984851" lon="6.6951508"><ele></ele><time>2025-2-28T4:0:59Z</time></trkpt>
<trkpt lat="44.7986830" lon="6.6950546"><ele></ele><time>2025-2-28T4:1:2Z</time></trkpt>
<trkpt lat="44.7989034" lon="6.6949241"><ele></ele><time>2025-2-28T4:1:5Z</time></trkpt>
<trkpt lat="44.7992327" lon="6.6947680"><ele></ele><time>2025-2-28T4:1:8Z</time></trkpt>
<trkpt lat="44.7994599" lon="6.6946660"><ele></ele><time>2025-2-28T4:1:11Z</time></trkpt>
<trkpt lat="44.7996943" lon="6.6946427"><ele></ele><time>2025-2-28T4:1:14Z</time></trkpt>
<trkpt lat="44.7998866" lon="6.6946708"><ele></ele><time>2025-2-28T4:1:17Z</time></trkpt>
<trkpt lat="44.8001347" lon="6.6946781"><ele></ele><time>2025-2-28T4:1:20Z</time></trkpt>
<trkpt lat="44.8003350" lon="6.6946335"><ele></ele><time>2025-2-28T4:1:23Z</time></trkpt>
<trkpt lat="44.8005347" lon="6.6945039"><ele></ele><time>2025-2-28T4:1:26Z</time></trkpt>
<trkpt lat="44.8007478" lon="6.6944595"><ele></ele><time>2025-2-28T4:1:29Z</time></trkpt>
<trkpt lat="44.8008736" lon="6.6946451"><ele></ele><time>2025-2-28T4:1:32Z</time></trkpt>
<trkpt lat="44.8010105" lon="6.6948917"><ele></ele><time>2025-2-28T4:1:35Z</time></trkpt>
<trkpt lat="44.8011606" lon="6.6950792"><ele></ele><time>2025-2-28T4:1:38Z</time></trkpt>
<trkpt lat="44.8013524" lon="6.6951034"><ele></ele><time>2025-2-28T4:1:41Z</time></trkpt>
<trkpt lat="44.8015382" lon="6.6950194"><ele></ele><time>2025-2-28T4:1:44Z</time></trkpt>
<trkpt lat="44.8017865" lon="6.6949584"><ele></ele><time>2025-2-28T4:1:47Z</time></trkpt>
<trkpt lat="44.8020527" lon="6.6949295"><ele></ele><time>2025-2-28T4:1:50Z</time></trkpt>
<trkpt lat="44.8022266" lon="6.6948628"><ele></ele><time>2025-2-28T4:1:53Z</time></trkpt>
<trkpt lat="44.8024634" lon="6.6948693"><ele></ele><time>2025-2-28T4:1:56Z</time></trkpt>
<trkpt lat="44.8026732" lon="6.6950072"><ele></ele><time>2025-2-28T4:1:59Z</time></trkpt>
<trkpt lat="44.8028868" lon="6.6951130"><ele></ele><time>2025-2-28T4:2:2Z</time></trkpt>
<trkpt lat="44.8031167" lon="6.6951565"><ele></ele><time>2025-2-28T4:2:5Z</time></trkpt>
<trkpt lat="44.8033123" lon="6.6952743"><ele></ele><time>2025-2-28T4:2:8Z</time></trkpt>
<trkpt lat="44.8035010" lon="6.6953992"><ele></ele><time>2025-2-28T4:2:11Z</time></trkpt>
<trkpt lat="44.8037168" lon="6.6954278"><ele></ele><time>2025-2-28T4:2:14Z</time></trkpt>
<trkpt lat="44.8038620" lon="6.6955967"><ele></ele><time>2025-2-28T4:2:17Z</time></trkpt>
<trkpt lat="44.8039205" lon="6.6958429"><ele></ele><time>2025-2-28T4:2:20Z</time></trkpt>
<trkpt lat="44.8039800" lon="6.6961220"><ele></ele><time>2025-2-28T4:2:23Z</time></trkpt>
<trkpt lat="44.8039832" lon="6.6964042"><ele></ele><time>2025-2-28T4:2:26Z</time></trkpt>
<trkpt lat="44.8039690" lon="6.6966878"><ele></ele><time>2025-2-28T4:2:29Z</time></trkpt>
<trkpt lat="44.8040082" lon="6.6969988"><ele></ele><time>2025-2-28T4:2:32Z</time></trkpt>
<trkpt lat="44.8040607" lon="6.6972474"><ele></ele><time>2025-2-28T4:2:35Z</time></trkpt>
<trkpt lat="44.8040966" lon="6.6975148"><ele></ele><time>2025-2-28T4:2:38Z</time></trkpt>
<trkpt lat="44.8042596" lon="6.6977314"><ele></ele><time>2025-2-28T4:2:41Z</time></trkpt>
<trkpt lat="44.8044873" lon="6.6977721"><ele></ele><time>2025-2-28T4:2:44Z</time></trkpt>
<trkpt lat="44.8047011" lon="6.6978436"><ele></ele><time>2025-2-28T4:2:47Z</time></trkpt>
<trkpt lat="44.8048985" lon="6.6980211"><ele></ele><time>2025-2-28T4:2:50Z</time></trkpt>
<trkpt lat="44.8050779" lon="6.6982106"><ele></ele><time>2025-2-28T4:2:53Z</time></trkpt>
<trkpt lat="44.8052613" lon="6.6983984"><ele></ele><time>2025-2-28T4:2:56Z</time></trkpt>
<trkpt lat="44.8054645" lon="6.6985579"><ele></ele><time>2025-2-28T4:2:59Z</time></trkpt>
<trkpt lat="44.8056202" lon="6.6987265"><ele></ele><time>2025-2-28T4:3:2Z</time></trkpt>
<trkpt lat="44.8057995" lon="6.6988522"><ele></ele><time>2025-2-28T4:3:5Z</time></trkpt>
<trkpt lat="44.8059819" lon="6.6990551"><ele></ele><time>2025-2-28T4:3:8Z</time></trkpt>
<trkpt lat="44.8060889" lon="6.6992846"><ele></ele><time>2025-2-28T4:3:11Z</time></trkpt>
<trkpt lat="44.8061900" lon="6.6995427"><ele></ele><time>2025-2-28T4:3:14Z</time></trkpt>
<trkpt lat="44.8062707" lon="6.6998391"><ele></ele><time>2025-2-28T4:3:17Z</time></trkpt>
<trkpt lat="44.8063314" lon="6.7001280"><ele></ele><time>2025-2-28T4:3:20Z</time></trkpt>
<trkpt lat="44.8061941" lon="6.6998475"><ele></ele><time>2025-2-28T4:3:23Z</time></trkpt>
<trkpt lat="44.8061736" lon="6.7001162"><ele></ele><time>2025-2-28T4:3:26Z</time></trkpt>
<trkpt lat="44.8061866" lon="6.7004176"><ele></ele><time>2025-2-28T4:3:29Z</time></trkpt>
<trkpt lat="44.8061970" lon="6.7007206"><ele></ele><time>2025-2-28T4:3:32Z</time></trkpt>
<trkpt lat="44.8062315" lon="6.7010020"><ele></ele><time>2025-2-28T4:3:35Z</time></trkpt>
<trkpt lat="44.8061424" lon="6.7006995"><ele></ele><time>2025-2-28T4:3:38Z</time></trkpt>
<trkpt lat="44.8060413" lon="6.7003847"><ele></ele><time>2025-2-28T4:3:41Z</time></trkpt>
<trkpt lat="44.8059554" lon="6.7000754"><ele></ele><time>2025-2-28T4:3:44Z</time></trkpt>
<trkpt lat="44.8058436" lon="6.6998346"><ele></ele><time>2025-2-28T4:3:47Z</time></trkpt>
<trkpt lat="44.8058395" lon="6.7001647"><ele></ele><time>2025-2-28T4:3:50Z</time></trkpt>
<trkpt lat="44.8058662" lon="6.7005457"><ele></ele><time>2025-2-28T4:3:53Z</time></trkpt>
<trkpt lat="44.8058820" lon="6.7008498"><ele></ele><time>2025-2-28T4:3:56Z</time></trkpt>
<trkpt lat="44.8059065" lon="6.7011457"><ele></ele><time>2025-2-28T4:3:59Z</time></trkpt>
<trkpt lat="44.8059255" lon="6.7013995"><ele></ele><time>2025-2-28T4:4:2Z</time></trkpt>
<trkpt lat="44.8059418" lon="6.7017639"><ele></ele><time>2025-2-28T4:4:5Z</time></trkpt>
<trkpt lat="44.8059873" lon="6.7021037"><ele></ele><time>2025-2-28T4:4:8Z</time></trkpt>
<trkpt lat="44.8060890" lon="6.7023235"><ele></ele><time>2025-2-28T4:4:11Z</time></trkpt>
<trkpt lat="44.8062026" lon="6.7025503"><ele></ele><time>2025-2-28T4:4:14Z</time></trkpt>
<trkpt lat="44.8062823" lon="6.7027927"><ele></ele><time>2025-2-28T4:4:17Z</time></trkpt>
<trkpt lat="44.8064342" lon="6.7030780"><ele></ele><time>2025-2-28T4:4:20Z</time></trkpt>
<trkpt lat="44.8065618" lon="6.7032709"><ele></ele><time>2025-2-28T4:4:23Z</time></trkpt>
<trkpt lat="44.8066487" lon="6.7035655"><ele></ele><time>2025-2-28T4:4:26Z</time></trkpt>
<trkpt lat="44.8066210" lon="6.7038404"><ele></ele><time>2025-2-28T4:4:29Z</time></trkpt>
<trkpt lat="44.8065347" lon="6.7041934"><ele></ele><time>2025-2-28T4:4:32Z</time></trkpt>
<trkpt lat="44.8064517" lon="6.7045579"><ele></ele><time>2025-2-28T4:4:35Z</time></trkpt>
<trkpt lat="44.8063642" lon="6.7048940"><ele></ele><time>2025-2-28T4:4:38Z</time></trkpt>
<trkpt lat="44.8062872" lon="6.7052014"><ele></ele><time>2025-2-28T4:4:41Z</time></trkpt>
<trkpt lat="44.8062531" lon="6.7055506"><ele></ele><time>2025-2-28T4:4:44Z</time></trkpt>
<trkpt lat="44.8062909" lon="6.7058788"><ele></ele><time>2025-2-28T4:4:47Z</time></trkpt>
<trkpt lat="44.8063696" lon="6.7062011"><ele></ele><time>2025-2-28T4:4:50Z</time></trkpt>
<trkpt lat="44.8064939" lon="6.7064494"><ele></ele><time>2025-2-28T4:4:53Z</time></trkpt>
<trkpt lat="44.8066189" lon="6.7066834"><ele></ele><time>2025-2-28T4:4:56Z</time></trkpt>
<trkpt lat="44.8066427" lon="6.7069404"><ele></ele><time>2025-2-28T4:4:59Z</time></trkpt>
<trkpt lat="44.8065240" lon="6.7071671"><ele></ele><time>2025-2-28T4:5:2Z</time></trkpt>
<trkpt lat="44.8063739" lon="6.7073079"><ele></ele><time>2025-2-28T4:5:5Z</time></trkpt>
<trkpt lat="44.8061644" lon="6.7075059"><ele></ele><time>2025-2-28T4:5:8Z</time></trkpt>
<trkpt lat="44.8059854" lon="6.7076018"><ele></ele><time>2025-2-28T4:5:11Z</time></trkpt>
<trkpt lat="44.8058972" lon="6.7073554"><ele></ele><time>2025-2-28T4:5:14Z</time></trkpt>
<trkpt lat="44.8059826" lon="6.7071153"><ele></ele><time>2025-2-28T4:5:17Z</time></trkpt>
<trkpt lat="44.8060553" lon="6.7068020"><ele></ele><time>2025-2-28T4:5:20Z</time></trkpt>
<trkpt lat="44.8058653" lon="6.7068096"><ele></ele><time>2025-2-28T4:5:23Z</time></trkpt>
<trkpt lat="44.8057698" lon="6.7070620"><ele></ele><time>2025-2-28T4:5:26Z</time></trkpt>
<trkpt lat="44.8056720" lon="6.7072866"><ele></ele><time>2025-2-28T4:5:29Z</time></trkpt>
<trkpt lat="44.8055314" lon="6.7070960"><ele></ele><time>2025-2-28T4:5:32Z</time></trkpt>
<trkpt lat="44.8055006" lon="6.7068405"><ele></ele><time>2025-2-28T4:5:35Z</time></trkpt>
<trkpt lat="44.8053035" lon="6.7069396"><ele></ele><time>2025-2-28T4:5:38Z</time></trkpt>
<trkpt lat="44.8052071" lon="6.7071566"><ele></ele><time>2025-2-28T4:5:41Z</time></trkpt>
<trkpt lat="44.8050723" lon="6.7074018"><ele></ele><time>2025-2-28T4:5:44Z</time></trkpt>
<trkpt lat="44.8049530" lon="6.7076541"><ele></ele><time>2025-2-28T4:5:47Z</time></trkpt>
<trkpt lat="44.8048523" lon="6.7079141"><ele></ele><time>2025-2-28T4:5:50Z</time></trkpt>
<trkpt lat="44.8047353" lon="6.7082218"><ele></ele><time>2025-2-28T4:5:53Z</time></trkpt>
<trkpt lat="44.8047009" lon="6.7085367"><ele></ele><time>2025-2-28T4:5:56Z</time></trkpt>
<trkpt lat="44.8045929" lon="6.7087588"><ele></ele><time>2025-2-28T4:5:59Z</time></trkpt>
<trkpt lat="44.8043430" lon="6.7087652"><ele></ele><time>2025-2-28T4:6:2Z</time></trkpt>
<trkpt lat="44.8040844" lon="6.7087593"><ele></ele><time>2025-2-28T4:6:5Z</time></trkpt>
<trkpt lat="44.8038262" lon="6.7087901"><ele></ele><time>2025-2-28T4:6:8Z</time></trkpt>
<trkpt lat="44.8035782" lon="6.7089008"><ele></ele><time>2025-2-28T4:6:11Z</time></trkpt>
<trkpt lat="44.8033876" lon="6.7090121"><ele></ele><time>2025-2-28T4:6:14Z</time></trkpt>
<trkpt lat="44.8031403" lon="6.7091470"><ele></ele><time>2025-2-28T4:6:17Z</time></trkpt>
<trkpt lat="44.8029343" lon="6.7093371"><ele></ele><time>2025-2-28T4:6:20Z</time></trkpt>
<trkpt lat="44.8027776" lon="6.7094864"><ele></ele><time>2025-2-28T4:6:23Z</time></trkpt>
<trkpt lat="44.8026492" lon="6.7097001"><ele></ele><time>2025-2-28T4:6:26Z</time></trkpt>
<trkpt lat="44.8025490" lon="6.7099502"><ele></ele><time>2025-2-28T4:6:29Z</time></trkpt>
<trkpt lat="44.8024421" lon="6.7101802"><ele></ele><time>2025-2-28T4:6:32Z</time></trkpt>
<trkpt lat="44.8023351" lon="6.7104732"><ele></ele><time>2025-2-28T4:6:35Z</time></trkpt>
<trkpt lat="44.8021356" lon="6.7106682"><ele></ele><time>2025-2-28T4:6:38Z</time></trkpt>
<trkpt lat="44.8020077" lon="6.7109065"><ele></ele><time>2025-2-28T4:6:41Z</time></trkpt>
<trkpt lat="44.8018655" lon="6.7111201"><ele></ele><time>2025-2-28T4:6:44Z</time></trkpt>
<trkpt lat="44.8017055" lon="6.7112825"><ele></ele><time>2025-2-28T4:6:47Z</time></trkpt>
<trkpt lat="44.8015378" lon="6.7114045"><ele></ele><time>2025-2-28T4:6:50Z</time></trkpt>
<trkpt lat="44.8013231" lon="6.7115625"><ele></ele><time>2025-2-28T4:6:53Z</time></trkpt>
<trkpt lat="44.8011454" lon="6.7116410"><ele></ele><time>2025-2-28T4:6:56Z</time></trkpt>
<trkpt lat="44.8009393" lon="6.7117179"><ele></ele><time>2025-2-28T4:6:59Z</time></trkpt>
<trkpt lat="44.8007687" lon="6.7118577"><ele></ele><time>2025-2-28T4:7:2Z</time></trkpt>
<trkpt lat="44.8006190" lon="6.7120171"><ele></ele><time>2025-2-28T4:7:5Z</time></trkpt>
<trkpt lat="44.8005062" lon="6.7122181"><ele></ele><time>2025-2-28T4:7:8Z</time></trkpt>
<trkpt lat="44.8003873" lon="6.7125333"><ele></ele><time>2025-2-28T4:7:11Z</time></trkpt>
<trkpt lat="44.8002848" lon="6.7127662"><ele></ele><time>2025-2-28T4:7:14Z</time></trkpt>
<trkpt lat="44.8001851" lon="6.7130935"><ele></ele><time>2025-2-28T4:7:17Z</time></trkpt>
<trkpt lat="44.8002268" lon="6.7134391"><ele></ele><time>2025-2-28T4:7:20Z</time></trkpt>
<trkpt lat="44.8002361" lon="6.7137007"><ele></ele><time>2025-2-28T4:7:23Z</time></trkpt>
<trkpt lat="44.8001739" lon="6.7139733"><ele></ele><time>2025-2-28T4:7:26Z</time></trkpt>
<trkpt lat="44.8000816" lon="6.7142642"><ele></ele><time>2025-2-28T4:7:29Z</time></trkpt>
<trkpt lat="44.8000110" lon="6.7145783"><ele></ele><time>2025-2-28T4:7:32Z</time></trkpt>
<trkpt lat="44.7999258" lon="6.7148801"><ele></ele><time>2025-2-28T4:7:35Z</time></trkpt>
<trkpt lat="44.7998286" lon="6.7151965"><ele></ele><time>2025-2-28T4:7:38Z</time></trkpt>
<trkpt lat="44.7997431" lon="6.7155114"><ele></ele><time>2025-2-28T4:7:41Z</time></trkpt>
<trkpt lat="44.7996562" lon="6.7157917"><ele></ele><time>2025-2-28T4:7:44Z</time></trkpt>
<trkpt lat="44.7995565" lon="6.7160125"><ele></ele><time>2025-2-28T4:7:47Z</time></trkpt>
<trkpt lat="44.7994866" lon="6.7163812"><ele></ele><time>2025-2-28T4:7:50Z</time></trkpt>
<trkpt lat="44.7994594" lon="6.7166403"><ele></ele><time>2025-2-28T4:7:53Z</time></trkpt>
<trkpt lat="44.7994529" lon="6.7170150"><ele></ele><time>2025-2-28T4:7:56Z</time></trkpt>
<trkpt lat="44.7993766" lon="6.7172487"><ele></ele><time>2025-2-28T4:7:59Z</time></trkpt>
<trkpt lat="44.7991986" lon="6.7174982"><ele></ele><time>2025-2-28T4:8:2Z</time></trkpt>
<trkpt lat="44.7990320" lon="6.7177459"><ele></ele><time>2025-2-28T4:8:5Z</time></trkpt>
<trkpt lat="44.7988972" lon="6.7180130"><ele></ele><time>2025-2-28T4:8:8Z</time></trkpt>
<trkpt lat="44.7987641" lon="6.7183467"><ele></ele><time>2025-2-28T4:8:11Z</time></trkpt>
<trkpt lat="44.7986491" lon="6.7185837"><ele></ele><time>2025-2-28T4:8:14Z</time></trkpt>
<trkpt lat="44.7985273" lon="6.7188302"><ele></ele><time>2025-2-28T4:8:17Z</time></trkpt>
<trkpt lat="44.7984732" lon="6.7191279"><ele></ele><time>2025-2-28T4:8:20Z</time></trkpt>
<trkpt lat="44.7984508" lon="6.7194502"><ele></ele><time>2025-2-28T4:8:23Z</time></trkpt>
<trkpt lat="44.7983970" lon="6.7197409"><ele></ele><time>2025-2-28T4:8:26Z</time></trkpt>
<trkpt lat="44.7983488" lon="6.7200379"><ele></ele><time>2025-2-28T4:8:29Z</time></trkpt>
<trkpt lat="44.7982380" lon="6.7203034"><ele></ele><time>2025-2-28T4:8:32Z</time></trkpt>
<trkpt lat="44.7980747" lon="6.7204945"><ele></ele><time>2025-2-28T4:8:35Z</time></trkpt>
<trkpt lat="44.7979350" lon="6.7207185"><ele></ele><time>2025-2-28T4:8:38Z</time></trkpt>
<trkpt lat="44.7977960" lon="6.7209520"><ele></ele><time>2025-2-28T4:8:41Z</time></trkpt>
<trkpt lat="44.7976324" lon="6.7211461"><ele></ele><time>2025-2-28T4:8:44Z</time></trkpt>
<trkpt lat="44.7974524" lon="6.7213181"><ele></ele><time>2025-2-28T4:8:47Z</time></trkpt>
<trkpt lat="44.7972847" lon="6.7214908"><ele></ele><time>2025-2-28T4:8:50Z</time></trkpt>
<trkpt lat="44.7971256" lon="6.7216667"><ele></ele><time>2025-2-28T4:8:53Z</time></trkpt>
<trkpt lat="44.7970169" lon="6.7219014"><ele></ele><time>2025-2-28T4:8:56Z</time></trkpt>
<trkpt lat="44.7969067" lon="6.7221479"><ele></ele><time>2025-2-28T4:8:59Z</time></trkpt>
<trkpt lat="44.7967805" lon="6.7223850"><ele></ele><time>2025-2-28T4:9:2Z</time></trkpt>
<trkpt lat="44.7966238" lon="6.7225686"><ele></ele><time>2025-2-28T4:9:5Z</time></trkpt>
<trkpt lat="44.7964504" lon="6.7227016"><ele></ele><time>2025-2-28T4:9:8Z</time></trkpt>
<trkpt lat="44.7962229" lon="6.7228786"><ele></ele><time>2025-2-28T4:9:11Z</time></trkpt>
<trkpt lat="44.7960118" lon="6.7230735"><ele></ele><time>2025-2-28T4:9:14Z</time></trkpt>
<trkpt lat="44.7958129" lon="6.7232190"><ele></ele><time>2025-2-28T4:9:17Z</time></trkpt>
<trkpt lat="44.7956197" lon="6.7233819"><ele></ele><time>2025-2-28T4:9:20Z</time></trkpt>
<trkpt lat="44.7954467" lon="6.7235504"><ele></ele><time>2025-2-28T4:9:23Z</time></trkpt>
<trkpt lat="44.7953228" lon="6.7237625"><ele></ele><time>2025-2-28T4:9:26Z</time></trkpt>
<trkpt lat="44.7952107" lon="6.7239987"><ele></ele><time>2025-2-28T4:9:29Z</time></trkpt>
<trkpt lat="44.7950793" lon="6.7242245"><ele></ele><time>2025-2-28T4:9:32Z</time></trkpt>
<trkpt lat="44.7949508" lon="6.7244622"><ele></ele><time>2025-2-28T4:9:35Z</time></trkpt>
<trkpt lat="44.7948337" lon="6.7247181"><ele></ele><time>2025-2-28T4:9:38Z</time></trkpt>
<trkpt lat="44.7947194" lon="6.7249808"><ele></ele><time>2025-2-28T4:9:41Z</time></trkpt>
<trkpt lat="44.7946115" lon="6.7252541"><ele></ele><time>2025-2-28T4:9:44Z</time></trkpt>
<trkpt lat="44.7944979" lon="6.7255238"><ele></ele><time>2025-2-28T4:9:47Z</time></trkpt>
<trkpt lat="44.7943432" lon="6.7257762"><ele></ele><time>2025-2-28T4:9:50Z</time></trkpt>
<trkpt lat="44.7941657" lon="6.7259738"><ele></ele><time>2025-2-28T4:9:53Z</time></trkpt>
<trkpt lat="44.7941149" lon="6.7262828"><ele></ele><time>2025-2-28T4:9:56Z</time></trkpt>
<trkpt lat="44.7940521" lon="6.7265491"><ele></ele><time>2025-2-28T4:9:59Z</time></trkpt>
<trkpt lat="44.7938894" lon="6.7267072"><ele></ele><time>2025-2-28T4:10:2Z</time></trkpt>
</trkseg></trk></gpx>